EGHH/BOH METAR and TAF weather

Enter ICAO airport designator
Station Type Date Time Source
EGHH METAR 2021/07/30 21:20 UTC NOAA

EGHH 302120Z 26007KT 9999 FEW027 SCT032 15/13 Q1008


Station Type Date Time Source
EGHH Decoded METAR 2021/07/30 21:20 UTC NOAA

Bournemouth Airport, United Kingdom (EGHH) 50-47N 001-50W 0M
Jul 30, 2021 - 05:20 PM EDT / 2021.07.30 2120 UTC
Wind: from the W (260 degrees) at 8 MPH (7 KT):0
Visibility: greater than 7 mile(s):0
Sky conditions: partly cloudy
Temperature: 59 F (15 C)
Dew Point: 55 F (13 C)
Relative Humidity: 87%
Pressure (altimeter): 29.77 in. Hg (1008 hPa)
ob: EGHH 302120Z 26007KT 9999 FEW027 SCT032 15/13 Q1008
cycle: 21

Station Type Date Time Source
EGHH TAF 2020/02/21 21:06 UTC NOAA

TAF EGHH 210200Z 2021/2123 CNL

Example: see airport list